Portada
METAR-TAF:

METAR-TAF

Aeroports :

Florence, Carolina del Sud, Estats Units d'Amèrica

latitud: 34-11-16N, longitud: 079-43-51W, altitud: 45 m

Observació

L'informe es va fer fa 47 minuts, a les 21:53 UTC
Vent 6 kt del Est
Temperatura 4°C
Humitat 44%
Pressió 1027 hPa
Visibilitat: 16.1 km
Cel clar

METAR: KFLO 132153Z 08006KT 10SM CLR 04/M07 A3034 RMK AO2 SLP274 T00441072

Hora: 17:40 (22:40 UTC)

Pronòstic

L'informe es va fer fa 5 hores i 20 minuts, a les 17:20 UTC
Pronòstic vàlid del 13 a les 18 UTC al 14 a les 18 UTC
Vent 11 kt del Nord-Est
Visibilitat: 10 km
Cel clar
A partir de les 14 a les 0000 UTC
Vent 7 kt del Nord-Est
Visibilitat: 10 km
Cel clar
A partir de les 14 a les 0900 UTC
Vent 5 kt del Nord-Est
Visibilitat: 10 km
Cel cobert a una alçada de 3000 ft

TAF: KFLO 131720Z 1318/1418 04011KT P6SM SKC FM140000 04007KT P6SM SKC FM140900 04005KT P6SM OVC030

Observacions i pronòstics meteorològics de més de 4000 aeroports (METAR i TAF).

Les estacions disponibles són els punts grocs i vermells al mapa.

Posi el ratolí al punt desitjat per veure el nom de l'estació.

Feu clic per veure les observacions i els pronòstics meteorològics.

Per canviar el mapa: feu clic els botons verds amb una creu de color negre per apropar; al botó verd amb un guió per allunyar la imatge; o en les fletxes verdes per a mapes adjacents.


METAR-TAF: